Terminal Aerodrome Forecast
Issued by NWS Sterling, VA

Current Version | Previous Version | Text Only | Print | Product List | Glossary Off
Versions: 1 2 3 4 5 6 7 8 9 10 11 12 13 14 15 16 17 18 19 20 21 22 23 24 25 26

886
FTUS41 KLWX 301137
TAFDCA
TAF
KDCA 301137Z 3012/0112 VRB05KT 2SM -SHRA BR SCT008 OVC012
     FM301400 17008KT 3SM BR OVC008
     FM301600 18010KT P6SM OVC012
     FM302100 19012KT 5SM SHRA OVC020
     FM010300 22012KT 4SM -SHRA OVC012
     FM010600 26010KT P6SM BKN060
     FM010800 28010KT P6SM SCT250=

USA.gov is the U.S. government's official web portal to all federal, state and local government web resources and services.